createdAt,value
2018-08-14T03:14:44.997Z,0.00
2018-08-14T03:15:44.977Z,0.00
2018-08-14T03:16:44.975Z,0.00
2018-08-14T03:17:44.975Z,0.00
2018-08-14T03:18:44.984Z,0.00
2018-08-14T03:19:45.030Z,0.00
2018-08-14T03:20:44.977Z,0.00
2018-08-14T03:21:44.975Z,0.00
2018-08-14T03:22:44.974Z,0.00
2018-08-14T03:23:44.982Z,0.00
2018-08-14T03:24:44.969Z,0.00
2018-08-14T03:25:44.978Z,0.00
2018-08-14T03:26:44.977Z,0.00
2018-08-14T03:27:44.977Z,0.00
2018-08-14T03:28:44.979Z,0.00
2018-08-14T03:29:44.975Z,0.00
2018-08-14T03:30:44.999Z,0.00
2018-08-14T03:31:44.998Z,0.00
2018-08-14T03:32:44.992Z,0.00
2018-08-14T03:33:45.016Z,0.00
2018-08-14T03:34:45.005Z,0.00
2018-08-14T03:35:44.991Z,0.00
2018-08-14T03:36:45.000Z,0.00
2018-08-14T03:37:45.015Z,0.00
2018-08-14T03:38:44.998Z,0.00
2018-08-14T03:39:45.000Z,0.00
2018-08-14T03:40:45.014Z,0.00
2018-08-14T03:41:45.007Z,0.00
2018-08-14T03:42:45.012Z,0.00
2018-08-14T03:43:45.026Z,0.00
2018-08-14T03:44:45.013Z,0.00
2018-08-14T03:45:45.015Z,0.00
2018-08-14T03:46:45.021Z,0.00
2018-08-14T03:47:45.029Z,0.00
2018-08-14T03:48:45.050Z,0.00
2018-08-14T03:49:45.026Z,0.00
2018-08-14T03:50:45.038Z,0.00
2018-08-14T03:51:45.033Z,0.00
2018-08-14T03:52:45.041Z,0.00
2018-08-14T03:53:45.037Z,0.00
2018-08-14T03:54:45.040Z,0.00
2018-08-14T03:55:45.038Z,0.00
2018-08-14T03:56:45.055Z,0.00
2018-08-14T03:57:45.048Z,0.00
2018-08-14T03:58:45.060Z,0.00
2018-08-14T03:59:45.066Z,0.00
2018-08-14T04:00:45.057Z,0.00
2018-08-14T04:01:45.059Z,0.00
2018-08-14T04:02:45.064Z,0.00
2018-08-14T04:03:45.064Z,0.00
2018-08-14T04:04:45.071Z,0.00
2018-08-14T04:05:45.068Z,0.00
2018-08-14T04:06:45.079Z,0.00
2018-08-14T04:07:45.091Z,0.00
2018-08-14T04:08:45.150Z,0.00
2018-08-14T04:09:45.084Z,0.00
2018-08-14T04:10:45.134Z,0.00
2018-08-14T04:11:45.094Z,0.00
2018-08-14T04:12:45.123Z,0.00
2018-08-14T04:13:45.095Z,0.00
2018-08-14T04:14:45.171Z,0.00
2018-08-14T04:15:45.115Z,0.00
2018-08-14T04:16:45.117Z,0.00
2018-08-14T04:17:45.098Z,0.00
2018-08-14T04:18:45.165Z,0.00
2018-08-14T04:19:45.121Z,0.00
2018-08-14T04:20:45.235Z,0.00
2018-08-14T04:21:45.109Z,0.00
2018-08-14T04:22:45.160Z,0.00
2018-08-14T04:23:45.117Z,0.00
2018-08-14T04:24:45.122Z,0.00
2018-08-14T04:25:45.137Z,0.00
2018-08-14T04:26:45.191Z,0.00
2018-08-14T04:27:45.127Z,0.00
2018-08-14T04:28:45.129Z,0.00
2018-08-14T04:29:45.153Z,0.00
2018-08-14T04:30:45.142Z,0.00
2018-08-14T04:31:45.149Z,0.00
2018-08-14T04:32:45.150Z,0.00
2018-08-14T04:33:45.146Z,0.00
2018-08-14T04:34:45.161Z,0.00
2018-08-14T04:35:45.148Z,0.00
2018-08-14T04:36:45.161Z,0.00
2018-08-14T04:37:45.151Z,0.00
2018-08-14T04:38:45.165Z,0.00
2018-08-14T04:39:45.169Z,5.63
2018-08-14T04:40:45.175Z,5.63
2018-08-14T04:41:45.166Z,5.63
2018-08-14T04:42:45.164Z,5.63
2018-08-14T04:43:45.166Z,5.63
2018-08-14T04:44:45.173Z,5.63
2018-08-14T04:45:45.211Z,5.63
2018-08-14T04:46:45.173Z,5.63
2018-08-14T04:47:45.176Z,5.63
2018-08-14T04:48:45.178Z,5.63
2018-08-14T04:49:45.200Z,0.00
2018-08-14T04:50:45.175Z,5.63
2018-08-14T04:51:45.185Z,5.63
2018-08-14T04:52:45.200Z,5.63
2018-08-14T04:53:45.235Z,5.63
2018-08-14T04:54:45.196Z,5.63
2018-08-14T04:55:45.216Z,5.63
2018-08-14T04:56:45.208Z,5.63
2018-08-14T04:57:45.203Z,5.63
2018-08-14T04:58:45.227Z,0.00
2018-08-14T04:59:45.214Z,5.63
2018-08-14T05:00:53.864Z,5.63
2018-08-14T05:02:39.655Z,11.25
2018-08-14T05:03:39.635Z,11.25
2018-08-14T05:04:39.627Z,11.25
2018-08-14T05:05:39.640Z,11.25
2018-08-14T05:06:39.639Z,11.25
2018-08-14T05:07:39.641Z,11.25
2018-08-14T05:08:39.647Z,11.25
2018-08-14T05:09:39.649Z,11.25
2018-08-14T05:10:39.652Z,28.13
2018-08-14T05:11:39.648Z,28.13
2018-08-14T05:12:39.656Z,28.13
2018-08-14T05:13:39.667Z,28.13
2018-08-14T05:14:39.705Z,16.88
2018-08-14T05:15:39.662Z,28.13
2018-08-14T05:16:39.679Z,28.13
2018-08-14T05:17:39.707Z,16.88
2018-08-14T05:18:39.681Z,16.88
2018-08-14T05:19:39.701Z,22.50
2018-08-14T05:20:39.718Z,33.75
2018-08-14T05:21:39.709Z,22.50
2018-08-14T05:22:39.714Z,28.13
2018-08-14T05:23:39.736Z,28.13
2018-08-14T05:24:39.713Z,16.88
2018-08-14T05:25:39.728Z,22.50
2018-08-14T05:26:39.727Z,28.13
2018-08-14T05:27:39.777Z,28.13
2018-08-14T05:28:39.733Z,22.50
2018-08-14T05:29:39.741Z,22.50
2018-08-14T05:30:39.756Z,22.50
2018-08-14T05:31:39.778Z,22.50
2018-08-14T05:32:39.800Z,22.50
2018-08-14T05:33:39.927Z,16.88
2018-08-14T05:34:39.791Z,22.50
2018-08-14T05:35:39.796Z,28.13
2018-08-14T05:36:39.834Z,28.13
2018-08-14T05:37:39.813Z,22.50
2018-08-14T05:38:39.815Z,28.13
2018-08-14T05:39:39.819Z,28.13
2018-08-14T05:40:39.819Z,22.50
2018-08-14T05:41:39.873Z,28.13
2018-08-14T05:42:39.832Z,33.75
2018-08-14T05:43:39.869Z,33.75
2018-08-14T05:44:39.837Z,73.13
2018-08-14T05:45:39.880Z,56.25
2018-08-14T05:46:39.883Z,45.00
2018-08-14T05:47:39.895Z,39.38
2018-08-14T05:48:39.905Z,39.38
2018-08-14T05:49:39.888Z,50.63
2018-08-14T05:50:39.900Z,67.50
2018-08-14T05:51:39.942Z,61.88
2018-08-14T05:52:39.932Z,112.50
2018-08-14T05:53:39.931Z,78.75
2018-08-14T05:54:39.988Z,84.38
2018-08-14T05:55:39.934Z,84.38
2018-08-14T05:56:39.970Z,135.00
2018-08-14T05:57:39.988Z,146.25
2018-08-14T05:58:39.978Z,174.38
2018-08-14T05:59:39.995Z,157.50
2018-08-14T06:00:40.014Z,163.13
2018-08-14T06:01:40.044Z,168.75
2018-08-14T06:02:40.039Z,180.00
2018-08-14T06:03:40.023Z,185.63
2018-08-14T06:04:40.039Z,196.88
2018-08-14T06:05:40.065Z,196.88
2018-08-14T06:06:40.071Z,202.50
2018-08-14T06:07:40.077Z,208.13
2018-08-14T06:08:40.120Z,213.75
2018-08-14T06:09:40.100Z,219.38
2018-08-14T06:10:40.117Z,225.00
2018-08-14T06:11:40.130Z,230.63
2018-08-14T06:12:40.142Z,241.88
2018-08-14T06:13:40.158Z,253.13
2018-08-14T06:14:40.192Z,258.75
2018-08-14T06:15:40.205Z,264.38
2018-08-14T06:16:40.214Z,258.75
2018-08-14T06:17:40.239Z,253.13
2018-08-14T06:18:40.232Z,225.00
2018-08-14T06:19:40.250Z,180.00
2018-08-14T06:20:40.274Z,90.00
2018-08-14T06:21:40.276Z,28.13
2018-08-14T06:22:40.292Z,11.25
2018-08-14T06:23:40.300Z,11.25
2018-08-14T06:24:40.350Z,11.25
2018-08-14T06:25:40.336Z,11.25
2018-08-14T06:26:40.353Z,11.25
2018-08-14T06:27:40.422Z,5.63
2018-08-14T06:28:40.357Z,5.63
2018-08-14T06:29:40.378Z,5.63
2018-08-14T06:30:40.377Z,5.63
2018-08-14T06:31:40.424Z,5.63
2018-08-14T06:32:40.407Z,5.63
2018-08-14T06:33:40.427Z,5.63
2018-08-14T06:34:40.420Z,5.63
2018-08-14T06:35:40.449Z,5.63
2018-08-14T06:36:40.443Z,5.63
2018-08-14T06:37:40.459Z,5.63
2018-08-14T06:38:40.463Z,5.63
2018-08-14T06:39:40.479Z,5.63
2018-08-14T06:40:40.477Z,5.63
2018-08-14T06:41:40.487Z,5.63
2018-08-14T06:42:40.547Z,5.63
2018-08-14T06:43:40.503Z,5.63
2018-08-14T06:44:40.514Z,5.63
2018-08-14T06:45:40.523Z,5.63
2018-08-14T06:46:40.521Z,5.63
2018-08-14T06:47:40.541Z,5.63
2018-08-14T06:48:40.549Z,5.63
2018-08-14T06:49:40.540Z,5.63
2018-08-14T06:50:40.573Z,5.63
2018-08-14T06:51:40.554Z,5.63
2018-08-14T06:52:40.562Z,5.63
2018-08-14T06:53:40.578Z,5.63
2018-08-14T06:54:40.622Z,5.63
2018-08-14T06:55:40.590Z,5.63
2018-08-14T06:56:40.585Z,5.63
2018-08-14T06:57:40.605Z,5.63
2018-08-14T06:58:40.590Z,5.63
2018-08-14T06:59:40.608Z,5.63
2018-08-14T07:00:40.612Z,5.63
2018-08-14T07:01:40.621Z,5.63
2018-08-14T07:02:40.627Z,5.63
2018-08-14T07:03:40.633Z,5.63
2018-08-14T07:04:40.639Z,5.63
2018-08-14T07:05:40.634Z,5.63
2018-08-14T07:06:40.645Z,5.63
2018-08-14T07:07:40.643Z,5.63
2018-08-14T07:08:40.653Z,5.63
2018-08-14T07:09:40.696Z,5.63
2018-08-14T07:10:40.660Z,5.63
2018-08-14T07:11:40.670Z,5.63
2018-08-14T07:12:40.672Z,5.63
2018-08-14T07:13:40.680Z,5.63
2018-08-14T07:14:40.680Z,5.63
2018-08-14T07:15:40.703Z,5.63
2018-08-14T07:16:40.723Z,5.63
2018-08-14T07:17:40.703Z,5.63
2018-08-14T07:18:40.703Z,5.63
2018-08-14T07:19:40.712Z,5.63
2018-08-14T07:20:40.722Z,5.63
2018-08-14T07:21:40.724Z,5.63
2018-08-14T07:22:40.732Z,5.63
2018-08-14T07:23:40.732Z,5.63
2018-08-14T07:24:40.727Z,5.63
2018-08-14T07:25:40.744Z,5.63
2018-08-14T07:26:40.743Z,5.63
2018-08-14T07:27:40.749Z,5.63
2018-08-14T07:28:40.755Z,5.63
2018-08-14T07:29:40.767Z,5.63
2018-08-14T07:30:40.763Z,11.25
2018-08-14T07:31:40.771Z,5.63
2018-08-14T07:32:40.774Z,5.63
2018-08-14T07:33:40.777Z,5.63
2018-08-14T07:34:40.787Z,5.63
2018-08-14T07:35:40.783Z,5.63
2018-08-14T07:36:40.792Z,5.63
2018-08-14T07:37:40.800Z,5.63
2018-08-14T07:38:40.800Z,5.63
2018-08-14T07:39:40.819Z,5.63
2018-08-14T07:40:40.813Z,5.63
2018-08-14T07:41:40.819Z,5.63
2018-08-14T07:42:40.817Z,5.63
2018-08-14T07:43:40.827Z,5.63
2018-08-14T07:44:40.829Z,5.63
2018-08-14T07:45:40.830Z,5.63
2018-08-14T07:46:40.841Z,5.63
2018-08-14T07:47:40.844Z,5.63
2018-08-14T07:48:40.852Z,5.63
2018-08-14T07:49:40.852Z,11.25
2018-08-14T07:50:40.853Z,11.25
2018-08-14T07:51:40.859Z,5.63
2018-08-14T07:52:40.863Z,11.25
2018-08-14T07:53:40.867Z,11.25
2018-08-14T07:54:40.878Z,11.25
2018-08-14T07:55:40.946Z,11.25
2018-08-14T07:56:40.898Z,11.25
2018-08-14T07:57:40.885Z,11.25
2018-08-14T07:58:40.892Z,11.25
2018-08-14T07:59:40.898Z,11.25
2018-08-14T08:00:40.907Z,11.25
2018-08-14T08:01:40.919Z,11.25
2018-08-14T08:02:40.925Z,11.25
2018-08-14T08:03:40.930Z,11.25
2018-08-14T08:04:40.927Z,11.25
2018-08-14T08:05:40.942Z,11.25
2018-08-14T08:06:40.940Z,11.25
2018-08-14T08:07:40.934Z,11.25
2018-08-14T08:08:40.960Z,11.25
2018-08-14T08:09:40.965Z,5.63
2018-08-14T08:10:40.952Z,11.25
2018-08-14T08:11:40.958Z,11.25
2018-08-14T08:12:40.969Z,11.25
2018-08-14T08:13:40.974Z,11.25
2018-08-14T08:14:40.971Z,11.25
2018-08-14T08:15:40.974Z,11.25
2018-08-14T08:16:40.978Z,11.25
2018-08-14T08:17:41.018Z,11.25
2018-08-14T08:18:40.999Z,11.25
2018-08-14T08:19:40.991Z,11.25
2018-08-14T08:20:41.005Z,11.25
2018-08-14T08:21:41.019Z,11.25
2018-08-14T08:22:41.034Z,11.25
2018-08-14T08:23:41.032Z,11.25
2018-08-14T08:24:41.159Z,11.25
2018-08-14T08:25:41.054Z,11.25
2018-08-14T08:26:41.029Z,11.25
2018-08-14T08:27:41.045Z,11.25
2018-08-14T08:28:41.041Z,5.63
2018-08-14T08:29:41.043Z,5.63
2018-08-14T08:30:41.051Z,5.63
2018-08-14T08:31:41.070Z,5.63
2018-08-14T08:32:41.054Z,5.63
2018-08-14T08:33:41.083Z,5.63
2018-08-14T08:34:41.074Z,5.63
2018-08-14T08:35:41.102Z,11.25
2018-08-14T08:36:41.071Z,11.25
2018-08-14T08:37:41.104Z,11.25
2018-08-14T08:38:41.083Z,11.25
2018-08-14T08:39:41.101Z,5.63
2018-08-14T08:40:41.117Z,11.25
2018-08-14T08:41:41.137Z,5.63
2018-08-14T08:42:41.099Z,11.25
2018-08-14T08:43:41.117Z,11.25
2018-08-14T08:44:41.121Z,11.25
2018-08-14T08:45:41.120Z,11.25
2018-08-14T08:46:41.127Z,11.25
2018-08-14T08:47:41.132Z,11.25
2018-08-14T08:48:41.141Z,5.63
2018-08-14T08:49:41.138Z,11.25
2018-08-14T08:50:41.143Z,11.25
2018-08-14T08:51:41.167Z,5.63
2018-08-14T08:52:41.151Z,5.63
2018-08-14T08:53:41.166Z,5.63
2018-08-14T08:54:41.161Z,5.63
2018-08-14T08:55:41.158Z,5.63
2018-08-14T08:56:41.175Z,5.63
2018-08-14T08:57:41.167Z,5.63
2018-08-14T08:58:41.185Z,5.63
2018-08-14T08:59:41.184Z,5.63
2018-08-14T09:00:41.197Z,5.63
2018-08-14T09:01:41.226Z,11.25
2018-08-14T09:02:41.247Z,11.25
2018-08-14T09:03:41.244Z,11.25
2018-08-14T09:04:41.204Z,11.25
2018-08-14T09:05:41.206Z,11.25
2018-08-14T09:06:41.217Z,11.25
2018-08-14T09:07:41.223Z,11.25
2018-08-14T09:08:41.235Z,11.25
2018-08-14T09:09:41.228Z,11.25
2018-08-14T09:10:41.245Z,11.25
2018-08-14T09:11:41.238Z,11.25
2018-08-14T09:12:41.276Z,11.25
2018-08-14T09:13:41.256Z,11.25
2018-08-14T09:14:41.252Z,11.25
2018-08-14T09:15:41.560Z,5.63
2018-08-14T09:16:41.268Z,5.63
2018-08-14T09:17:41.450Z,5.63
2018-08-14T09:18:41.275Z,5.63
2018-08-14T09:19:41.276Z,5.63
2018-08-14T09:20:41.284Z,11.25
2018-08-14T09:21:41.302Z,5.63
2018-08-14T09:22:41.301Z,5.63
2018-08-14T09:23:41.302Z,5.63
2018-08-14T09:24:41.319Z,5.63
2018-08-14T09:25:41.315Z,5.63
2018-08-14T09:26:41.305Z,5.63
2018-08-14T09:27:41.311Z,5.63
2018-08-14T09:28:41.350Z,5.63
2018-08-14T09:29:41.368Z,5.63
2018-08-14T09:30:41.342Z,5.63
2018-08-14T09:31:41.343Z,5.63
2018-08-14T09:32:41.475Z,5.63
2018-08-14T09:33:41.399Z,5.63
2018-08-14T09:34:41.340Z,5.63
2018-08-14T09:35:41.363Z,5.63
2018-08-14T09:36:41.355Z,11.25
2018-08-14T09:37:41.362Z,11.25
2018-08-14T09:38:41.370Z,11.25
2018-08-14T09:39:41.378Z,11.25
2018-08-14T09:40:41.378Z,5.63
2018-08-14T09:41:41.398Z,5.63
2018-08-14T09:42:41.405Z,5.63
2018-08-14T09:43:41.395Z,5.63
2018-08-14T09:44:41.399Z,5.63
2018-08-14T09:45:41.413Z,5.63
2018-08-14T09:46:41.406Z,5.63
2018-08-14T09:47:41.447Z,5.63
2018-08-14T09:48:41.427Z,5.63
2018-08-14T09:49:41.431Z,5.63
2018-08-14T09:50:41.425Z,5.63
2018-08-14T09:51:41.463Z,5.63
2018-08-14T09:52:41.437Z,5.63
2018-08-14T09:53:41.453Z,5.63
2018-08-14T09:54:41.446Z,5.63
2018-08-14T09:55:41.448Z,5.63
2018-08-14T09:56:41.459Z,5.63
2018-08-14T09:57:41.482Z,5.63
2018-08-14T09:58:41.475Z,5.63
2018-08-14T09:59:41.471Z,5.63
2018-08-14T10:00:41.479Z,5.63
2018-08-14T10:01:41.517Z,5.63
2018-08-14T10:02:41.481Z,5.63
2018-08-14T10:03:41.498Z,5.63
2018-08-14T10:04:41.506Z,5.63
2018-08-14T10:05:41.493Z,5.63
2018-08-14T10:06:41.502Z,5.63
2018-08-14T10:07:41.511Z,5.63
2018-08-14T10:08:41.514Z,5.63
2018-08-14T10:09:41.519Z,5.63
2018-08-14T10:10:41.526Z,5.63
2018-08-14T10:11:41.537Z,5.63
2018-08-14T10:12:41.536Z,5.63
2018-08-14T10:13:41.560Z,5.63
2018-08-14T10:14:41.552Z,5.63
2018-08-14T10:15:41.545Z,5.63
2018-08-14T10:16:41.553Z,5.63
2018-08-14T10:17:41.555Z,11.25
2018-08-14T10:18:41.562Z,11.25
2018-08-14T10:19:41.584Z,11.25
2018-08-14T10:20:50.948Z,11.25
2018-08-14T10:22:34.986Z,5.63
2018-08-14T10:23:34.977Z,5.63
2018-08-14T10:24:34.980Z,5.63
2018-08-14T10:25:34.990Z,5.63
2018-08-14T10:26:34.994Z,5.63
2018-08-14T10:27:34.991Z,5.63
2018-08-14T10:28:35.071Z,5.63
2018-08-14T10:29:35.010Z,5.63
2018-08-14T10:30:35.012Z,5.63
2018-08-14T10:31:35.017Z,5.63
2018-08-14T10:32:35.022Z,5.63
2018-08-14T10:33:35.029Z,11.25
2018-08-14T10:34:35.052Z,11.25
2018-08-14T10:35:35.092Z,11.25
2018-08-14T10:36:35.057Z,5.63
2018-08-14T10:37:35.045Z,5.63
2018-08-14T10:38:35.065Z,11.25
2018-08-14T10:39:35.073Z,11.25
2018-08-14T10:40:35.101Z,11.25
2018-08-14T10:41:35.070Z,11.25
2018-08-14T10:42:35.112Z,11.25
2018-08-14T10:43:35.082Z,5.63
2018-08-14T10:44:35.087Z,5.63
2018-08-14T10:45:35.088Z,5.63
2018-08-14T10:46:35.187Z,11.25
2018-08-14T10:47:35.107Z,11.25
2018-08-14T10:48:35.101Z,11.25
2018-08-14T10:49:35.110Z,11.25
2018-08-14T10:50:35.115Z,11.25
2018-08-14T10:51:35.121Z,11.25
2018-08-14T10:52:35.129Z,11.25
2018-08-14T10:53:35.130Z,11.25
2018-08-14T10:54:35.144Z,11.25
2018-08-14T10:55:35.141Z,16.88
2018-08-14T10:56:35.140Z,11.25
2018-08-14T10:57:35.149Z,11.25
2018-08-14T10:58:35.166Z,11.25
2018-08-14T10:59:35.163Z,16.88
2018-08-14T11:00:35.163Z,11.25
2018-08-14T11:01:35.178Z,11.25
2018-08-14T11:02:35.176Z,11.25
2018-08-14T11:03:35.179Z,5.63
2018-08-14T11:04:35.308Z,5.63
2018-08-14T11:05:35.200Z,11.25
2018-08-14T11:06:35.202Z,11.25
2018-08-14T11:07:35.211Z,11.25
2018-08-14T11:08:35.216Z,11.25
2018-08-14T11:09:35.220Z,11.25
2018-08-14T11:10:35.246Z,11.25
2018-08-14T11:11:35.247Z,11.25
2018-08-14T11:12:35.244Z,11.25
2018-08-14T11:13:35.243Z,11.25
2018-08-14T11:14:35.243Z,11.25
2018-08-14T11:15:35.250Z,11.25
2018-08-14T11:16:35.260Z,11.25
2018-08-14T11:17:35.270Z,11.25
2018-08-14T11:18:35.276Z,11.25
2018-08-14T11:19:35.301Z,11.25
2018-08-14T11:20:35.282Z,11.25
2018-08-14T11:21:35.291Z,5.63
2018-08-14T11:22:35.298Z,5.63
2018-08-14T11:23:35.311Z,5.63
2018-08-14T11:24:35.299Z,5.63
2018-08-14T11:25:35.313Z,11.25
2018-08-14T11:26:35.314Z,11.25
2018-08-14T11:27:35.321Z,11.25
2018-08-14T11:28:35.332Z,11.25
2018-08-14T11:29:35.336Z,11.25
2018-08-14T11:30:35.355Z,11.25
2018-08-14T11:31:35.350Z,11.25
2018-08-14T11:32:35.421Z,11.25
2018-08-14T11:33:35.358Z,11.25
2018-08-14T11:34:35.363Z,11.25
2018-08-14T11:35:35.392Z,11.25
2018-08-14T11:36:35.381Z,11.25
2018-08-14T11:37:35.381Z,5.63
2018-08-14T11:38:35.389Z,5.63
2018-08-14T11:39:35.401Z,5.63
2018-08-14T11:40:35.400Z,5.63
2018-08-14T11:41:35.465Z,11.25
2018-08-14T11:42:35.404Z,5.63
2018-08-14T11:43:35.416Z,11.25
2018-08-14T11:44:35.428Z,11.25
2018-08-14T11:45:35.431Z,11.25
2018-08-14T11:46:35.444Z,11.25
2018-08-14T11:47:35.442Z,11.25
2018-08-14T11:48:35.441Z,11.25
2018-08-14T11:49:35.460Z,11.25
2018-08-14T11:50:35.453Z,16.88
2018-08-14T11:51:35.468Z,16.88
2018-08-14T11:52:35.465Z,11.25
2018-08-14T11:53:35.479Z,11.25
2018-08-14T11:54:35.497Z,11.25
2018-08-14T11:55:35.484Z,11.25
2018-08-14T11:56:35.504Z,11.25
2018-08-14T11:57:35.634Z,11.25
2018-08-14T11:58:35.538Z,11.25
2018-08-14T11:59:35.507Z,11.25
2018-08-14T12:00:35.524Z,11.25
2018-08-14T12:01:35.525Z,11.25
2018-08-14T12:02:35.533Z,11.25
2018-08-14T12:03:35.531Z,11.25
2018-08-14T12:04:35.543Z,11.25
2018-08-14T12:05:38.074Z,11.25
2018-08-14T12:06:35.565Z,11.25
2018-08-14T12:07:35.556Z,11.25
2018-08-14T12:08:35.578Z,11.25
2018-08-14T12:09:35.570Z,11.25
2018-08-14T12:10:35.580Z,11.25
2018-08-14T12:11:35.581Z,11.25
2018-08-14T12:12:35.612Z,5.63
2018-08-14T12:13:35.675Z,5.63
2018-08-14T12:14:35.604Z,5.63
2018-08-14T12:15:35.617Z,5.63
2018-08-14T12:16:35.617Z,5.63
2018-08-14T12:17:35.622Z,5.63
2018-08-14T12:18:35.761Z,5.63
2018-08-14T12:19:35.644Z,5.63
2018-08-14T12:20:35.668Z,5.63
2018-08-14T12:21:35.654Z,5.63
2018-08-14T12:22:35.651Z,5.63
2018-08-14T12:23:35.652Z,11.25
2018-08-14T12:24:35.663Z,11.25
2018-08-14T12:25:35.667Z,11.25
2018-08-14T12:26:35.670Z,11.25
2018-08-14T12:27:35.691Z,11.25
2018-08-14T12:28:35.717Z,11.25
2018-08-14T12:29:35.722Z,11.25
2018-08-14T12:30:35.698Z,11.25
2018-08-14T12:31:35.709Z,11.25
2018-08-14T12:34:19.448Z,11.25
2018-08-14T12:35:07.874Z,11.25
2018-08-14T12:36:07.893Z,11.25
2018-08-14T12:37:07.878Z,11.25
2018-08-14T12:38:07.909Z,11.25
2018-08-14T12:39:07.878Z,11.25
2018-08-14T12:40:07.897Z,11.25
2018-08-14T12:41:07.897Z,11.25
2018-08-14T12:42:07.893Z,11.25
2018-08-14T12:43:07.936Z,11.25
2018-08-14T12:44:07.903Z,11.25
2018-08-14T12:45:07.908Z,11.25
2018-08-14T12:46:07.917Z,11.25
2018-08-14T12:47:08.016Z,11.25
2018-08-14T12:48:07.928Z,11.25
2018-08-14T12:49:07.935Z,11.25
2018-08-14T12:50:07.940Z,11.25
2018-08-14T12:51:07.947Z,11.25
2018-08-14T12:52:07.994Z,5.63
2018-08-14T12:53:07.966Z,5.63
2018-08-14T12:54:16.636Z,5.63
2018-08-14T12:56:01.409Z,5.63
2018-08-14T12:57:01.377Z,11.25
2018-08-14T12:58:10.060Z,11.25
2018-08-14T12:59:54.839Z,11.25
2018-08-14T13:00:54.807Z,11.25
2018-08-14T13:01:54.883Z,11.25
2018-08-14T13:02:54.820Z,11.25
2018-08-14T13:03:54.815Z,11.25
2018-08-14T13:04:54.859Z,11.25
2018-08-14T13:05:54.832Z,11.25
2018-08-14T13:06:54.837Z,11.25
2018-08-14T13:07:54.842Z,11.25
2018-08-14T13:08:54.880Z,11.25
2018-08-14T13:09:54.865Z,11.25
2018-08-14T13:10:54.854Z,11.25
2018-08-14T13:11:54.903Z,11.25
2018-08-14T13:12:54.868Z,11.25
2018-08-14T13:13:54.884Z,11.25
2018-08-14T13:14:54.908Z,11.25
2018-08-14T13:15:54.893Z,11.25
2018-08-14T13:16:54.899Z,11.25
2018-08-14T13:17:54.903Z,11.25
2018-08-14T13:18:54.913Z,11.25
2018-08-14T13:19:54.918Z,11.25
2018-08-14T13:20:54.990Z,11.25
2018-08-14T13:21:54.962Z,11.25
2018-08-14T13:22:54.941Z,11.25
2018-08-14T13:23:54.942Z,11.25
2018-08-14T13:24:54.955Z,5.63
2018-08-14T13:25:54.972Z,11.25
2018-08-14T13:26:54.958Z,11.25
2018-08-14T13:27:54.972Z,5.63
2018-08-14T13:28:55.041Z,5.63
2018-08-14T13:29:55.001Z,5.63
2018-08-14T13:30:54.994Z,5.63
2018-08-14T13:31:54.992Z,5.63
2018-08-14T13:32:55.139Z,5.63
2018-08-14T13:33:55.016Z,5.63
2018-08-14T13:34:55.023Z,5.63
2018-08-14T13:35:55.028Z,5.63
2018-08-14T13:36:55.056Z,5.63
2018-08-14T13:37:55.037Z,5.63
2018-08-14T13:38:55.058Z,5.63
2018-08-14T13:39:55.074Z,5.63
2018-08-14T13:40:55.092Z,5.63
2018-08-14T13:41:55.065Z,5.63
2018-08-14T13:42:55.067Z,5.63
2018-08-14T13:43:55.085Z,5.63
2018-08-14T13:44:55.079Z,11.25
2018-08-14T13:45:55.092Z,11.25
2018-08-14T13:46:55.092Z,5.63
2018-08-14T13:47:55.148Z,5.63
2018-08-14T13:48:55.103Z,5.63
2018-08-14T13:49:55.116Z,5.63
2018-08-14T13:50:55.146Z,11.25
2018-08-14T13:51:55.129Z,11.25
2018-08-14T13:52:55.139Z,11.25
2018-08-14T13:53:55.147Z,11.25
2018-08-14T13:54:55.161Z,11.25
2018-08-14T13:55:55.167Z,11.25
2018-08-14T13:56:55.163Z,11.25
2018-08-14T13:57:55.173Z,11.25
2018-08-14T13:58:55.166Z,5.63
2018-08-14T13:59:55.178Z,11.25
2018-08-14T14:00:55.188Z,11.25
2018-08-14T14:01:55.188Z,5.63
2018-08-14T14:02:55.208Z,5.63
2018-08-14T14:03:55.209Z,5.63
2018-08-14T14:04:55.230Z,5.63
2018-08-14T14:05:55.217Z,5.63
2018-08-14T14:06:55.222Z,5.63
2018-08-14T14:07:55.235Z,5.63
2018-08-14T14:08:55.249Z,5.63
2018-08-14T14:09:55.252Z,5.63
2018-08-14T14:10:55.246Z,5.63
2018-08-14T14:11:55.266Z,5.63
2018-08-14T14:12:55.264Z,5.63
2018-08-14T14:13:55.274Z,11.25
2018-08-14T14:14:55.280Z,11.25
2018-08-14T14:15:55.290Z,11.25
2018-08-14T14:16:55.297Z,11.25
2018-08-14T14:17:55.317Z,5.63
2018-08-14T14:18:55.299Z,5.63
2018-08-14T14:19:55.343Z,5.63
2018-08-14T14:20:55.481Z,5.63
2018-08-14T14:21:55.347Z,5.63
2018-08-14T14:22:55.325Z,5.63
2018-08-14T14:23:55.345Z,5.63
2018-08-14T14:24:55.361Z,5.63
2018-08-14T14:25:55.352Z,5.63
2018-08-14T14:26:55.403Z,5.63
2018-08-14T14:27:55.396Z,5.63
2018-08-14T14:28:55.399Z,5.63
2018-08-14T14:29:55.412Z,5.63
2018-08-14T14:30:55.482Z,5.63
2018-08-14T14:31:55.422Z,5.63
2018-08-14T14:32:55.400Z,5.63
2018-08-14T14:33:55.452Z,5.63
2018-08-14T14:34:55.427Z,5.63
2018-08-14T14:35:55.435Z,5.63
2018-08-14T14:36:55.428Z,11.25
2018-08-14T14:37:55.441Z,11.25
2018-08-14T14:38:55.438Z,11.25
2018-08-14T14:39:55.479Z,11.25
2018-08-14T14:40:55.509Z,11.25
2018-08-14T14:41:55.532Z,11.25
2018-08-14T14:42:55.535Z,11.25
2018-08-14T14:43:55.495Z,11.25
2018-08-14T14:44:55.492Z,11.25
2018-08-14T14:45:55.499Z,11.25
2018-08-14T14:46:55.539Z,11.25
2018-08-14T14:47:55.514Z,11.25
2018-08-14T14:48:55.603Z,11.25
2018-08-14T14:49:55.541Z,11.25
2018-08-14T14:50:55.594Z,11.25
2018-08-14T14:51:55.548Z,11.25
2018-08-14T14:52:55.521Z,11.25
2018-08-14T14:53:55.526Z,11.25
2018-08-14T14:54:55.543Z,5.63
2018-08-14T14:55:55.552Z,5.63
2018-08-14T14:56:55.565Z,11.25
2018-08-14T14:57:55.560Z,5.63
2018-08-14T14:58:55.597Z,5.63
2018-08-14T14:59:55.582Z,11.25
2018-08-14T15:00:55.577Z,11.25
2018-08-14T15:01:55.591Z,11.25
2018-08-14T15:02:55.594Z,11.25
2018-08-14T15:03:55.617Z,11.25
2018-08-14T15:04:55.601Z,11.25
2018-08-14T15:05:55.605Z,11.25
2018-08-14T15:06:55.634Z,5.63
2018-08-14T15:07:55.629Z,11.25
2018-08-14T15:08:55.634Z,5.63
2018-08-14T15:09:55.663Z,5.63
2018-08-14T15:10:56.343Z,5.63
2018-08-14T15:11:55.647Z,5.63
2018-08-14T15:12:55.677Z,5.63
2018-08-14T15:13:55.695Z,5.63
2018-08-14T15:14:55.791Z,5.63
2018-08-14T15:15:55.677Z,5.63
2018-08-14T15:16:55.680Z,5.63
2018-08-14T15:17:55.689Z,5.63
2018-08-14T15:18:55.701Z,5.63
2018-08-14T15:19:55.774Z,5.63
2018-08-14T15:20:55.735Z,5.63
2018-08-14T15:21:55.723Z,5.63
2018-08-14T15:22:55.727Z,5.63
2018-08-14T15:23:55.729Z,5.63
2018-08-14T15:24:55.741Z,5.63
2018-08-14T15:25:55.741Z,5.63
2018-08-14T15:26:55.751Z,5.63
2018-08-14T15:27:55.761Z,5.63
2018-08-14T15:28:55.772Z,5.63
2018-08-14T15:29:55.768Z,5.63
2018-08-14T15:31:04.924Z,5.63
2018-08-14T15:32:49.357Z,5.63
2018-08-14T15:33:49.310Z,5.63
2018-08-14T15:34:49.187Z,5.63
2018-08-14T15:35:49.383Z,5.63
2018-08-14T15:36:49.223Z,5.63
2018-08-14T15:37:49.243Z,5.63
2018-08-14T15:38:49.274Z,5.63
2018-08-14T15:39:49.341Z,5.63
2018-08-14T15:40:49.404Z,5.63
2018-08-14T15:41:49.299Z,0.00
2018-08-14T15:42:49.286Z,0.00
2018-08-14T15:43:49.263Z,0.00
2018-08-14T15:44:49.263Z,0.00
2018-08-14T15:45:49.271Z,0.00
2018-08-14T15:46:49.289Z,0.00
2018-08-14T15:47:49.311Z,0.00
2018-08-14T15:48:49.301Z,0.00
2018-08-14T15:49:49.430Z,0.00
2018-08-14T15:50:49.306Z,0.00
2018-08-14T15:51:49.298Z,0.00
2018-08-14T15:52:49.331Z,0.00
2018-08-14T15:53:49.369Z,0.00
2018-08-14T15:54:49.314Z,0.00
2018-08-14T15:55:49.351Z,0.00
2018-08-14T15:56:49.343Z,0.00
2018-08-14T15:57:49.351Z,0.00
2018-08-14T15:58:49.384Z,0.00
2018-08-14T15:59:49.380Z,5.63
2018-08-14T16:00:49.464Z,5.63
2018-08-14T16:01:49.389Z,5.63
2018-08-14T16:02:49.378Z,5.63
2018-08-14T16:03:49.381Z,5.63
2018-08-14T16:04:49.391Z,5.63
2018-08-14T16:05:49.403Z,5.63
2018-08-14T16:06:49.420Z,5.63
2018-08-14T16:07:49.397Z,5.63
2018-08-14T16:08:49.412Z,5.63
2018-08-14T16:09:49.418Z,5.63
2018-08-14T16:10:49.438Z,5.63
2018-08-14T16:11:49.450Z,5.63
2018-08-14T16:12:49.439Z,5.63
2018-08-14T16:13:49.478Z,5.63
2018-08-14T16:14:49.467Z,5.63
2018-08-14T16:15:49.451Z,5.63
2018-08-14T16:16:49.454Z,5.63
2018-08-14T16:17:49.459Z,5.63
2018-08-14T16:18:49.516Z,5.63
2018-08-14T16:19:49.477Z,5.63
2018-08-14T16:20:49.564Z,5.63
2018-08-14T16:21:49.488Z,5.63
2018-08-14T16:22:49.516Z,5.63
2018-08-14T16:23:49.498Z,5.63
2018-08-14T16:24:49.512Z,5.63
2018-08-14T16:25:49.518Z,5.63
2018-08-14T16:26:49.555Z,5.63